地図

経路データ

SID SEASON NUMBER BASIN SUBBASIN NAME ISO_TIME NATURE LAT LON WMO_WIND WMO_PRES WMO_AGENCY TRACK_TYPE DIST2LAND LANDFALL IFLAG USA_AGENCY USA_ATCF_ID USA_LAT USA_LON USA_RECORD USA_STATUS USA_WIND USA_PRES USA_SSHS USA_R34_NE USA_R34_SE USA_R34_SW USA_R34_NW USA_R50_NE USA_R50_SE USA_R50_SW USA_R50_NW USA_R64_NE USA_R64_SE USA_R64_SW USA_R64_NW USA_POCI USA_ROCI USA_RMW USA_EYE TOKYO_LAT TOKYO_LON TOKYO_GRADE TOKYO_WIND TOKYO_PRES TOKYO_R50_DIR TOKYO_R50_LONG TOKYO_R50_SHORT TOKYO_R30_DIR TOKYO_R30_LONG TOKYO_R30_SHORT TOKYO_LAND CMA_LAT CMA_LON CMA_CAT CMA_WIND CMA_PRES HKO_LAT HKO_LON HKO_CAT HKO_WIND HKO_PRES NEWDELHI_LAT NEWDELHI_LON NEWDELHI_GRADE NEWDELHI_WIND NEWDELHI_PRES NEWDELHI_CI NEWDELHI_DP NEWDELHI_POCI REUNION_LAT REUNION_LON REUNION_TYPE REUNION_WIND REUNION_PRES REUNION_TNUM REUNION_CI REUNION_RMW REUNION_R34_NE REUNION_R34_SE REUNION_R34_SW REUNION_R34_NW REUNION_R50_NE REUNION_R50_SE REUNION_R50_SW REUNION_R50_NW REUNION_R64_NE REUNION_R64_SE REUNION_R64_SW REUNION_R64_NW BOM_LAT BOM_LON BOM_TYPE BOM_WIND BOM_PRES BOM_TNUM BOM_CI BOM_RMW BOM_R34_NE BOM_R34_SE BOM_R34_SW BOM_R34_NW BOM_R50_NE BOM_R50_SE BOM_R50_SW BOM_R50_NW BOM_R64_NE BOM_R64_SE BOM_R64_SW BOM_R64_NW BOM_ROCI BOM_POCI BOM_EYE BOM_POS_METHOD BOM_PRES_METHOD NADI_LAT NADI_LON NADI_CAT NADI_WIND NADI_PRES WELLINGTON_LAT WELLINGTON_LON WELLINGTON_WIND WELLINGTON_PRES DS824_LAT DS824_LON DS824_STAGE DS824_WIND DS824_PRES TD9636_LAT TD9636_LON TD9636_STAGE TD9636_WIND TD9636_PRES TD9635_LAT TD9635_LON TD9635_WIND TD9635_PRES TD9635_ROCI NEUMANN_LAT NEUMANN_LON NEUMANN_CLASS NEUMANN_WIND NEUMANN_PRES MLC_LAT MLC_LON MLC_CLASS MLC_WIND MLC_PRES USA_GUST BOM_GUST BOM_GUST_PER REUNION_GUST REUNION_GUST_PER USA_SEAHGT USA_SEARAD_NE USA_SEARAD_SE USA_SEARAD_SW USA_SEARAD_NW STORM_SPEED STORM_DIR
1973280N12090 1973 110 NI BB NOT_NAMED 1973-10-06 12:00:00 TS 12.0000 90.0000 main 637 629 O________OO___ jtwc_io IO101973 12.0000 90.0000 -1 12.0000 90.0000 TC 12.0000 90.0000 1 3 315
1973280N12090 1973 110 NI BB NOT_NAMED 1973-10-06 15:00:00 TS 12.1016 89.9010 main 637 637 P________PP___ IO101973 12.1000 89.9100 -1 12.1000 89.9100 TC 12.1047 89.8829 1 3 314
1973280N12090 1973 110 NI BB NOT_NAMED 1973-10-06 18:00:00 TS 12.2025 89.7875 main 637 637 O________OP___ jtwc_io IO101973 12.2000 89.8000 -1 12.2000 89.8000 TC 12.2075 89.7626 1 3 309
1973280N12090 1973 110 NI BB NOT_NAMED 1973-10-06 21:00:00 TS 12.3022 89.6503 main 638 638 P________PP___ IO101973 12.3000 89.6575 -1 12.3000 89.6575 TC 12.3066 89.6360 1 3 305
1973280N12090 1973 110 NI BB NOT_NAMED 1973-10-07 00:00:00 TS 12.4000 89.5000 main 647 647 O________OO___ jtwc_io IO101973 12.4000 89.5000 -1 12.4000 89.5000 TC 12.4000 89.5000 1 4 304
1973280N12090 1973 110 NI BB NOT_NAMED 1973-10-07 03:00:00 TS 12.5004 89.3510 main 649 649 P________PP___ IO101973 12.5075 89.3500 -1 12.5075 89.3500 TC 12.4863 89.3531 1 3 303
1973280N12090 1973 110 NI BB NOT_NAMED 1973-10-07 06:00:00 TS 12.5883 89.2000 main 659 659 O________OP___ jtwc_io IO101973 12.6000 89.2000 -1 12.6000 89.2000 TC 12.5650 89.2000 1 3 297
1973280N12090 1973 110 NI BB NOT_NAMED 1973-10-07 09:00:00 TS 12.6504 89.0439 main 671 671 P________PP___ IO101973 12.6575 89.0425 -1 12.6575 89.0425 TC 12.6363 89.0469 1 3 291
1973280N12090 1973 110 NI BB NOT_NAMED 1973-10-07 12:00:00 TS 12.7000 88.9000 main 680 680 O________OO___ jtwc_io IO101973 12.7000 88.9000 -1 12.7000 88.9000 TC 12.7000 88.9000 1 3 291
1973280N12090 1973 110 NI BB NOT_NAMED 1973-10-07 15:00:00 TS 12.7470 88.7892 main 689 683 P________PP___ IO101973 12.7500 88.8000 -1 12.7500 88.8000 TC 12.7409 88.7677 1 2 294
1973280N12090 1973 110 NI BB NOT_NAMED 1973-10-07 18:00:00 TS 12.7925 88.6808 main 692 692 O________OP___ jtwc_io IO101973 12.8000 88.7000 -1 12.8000 88.7000 TC 12.7775 88.6424 1 3 290
1973280N12090 1973 110 NI BB NOT_NAMED 1973-10-07 21:00:00 TS 12.8368 88.5403 main 710 705 P________PP___ IO101973 12.8425 88.5500 -1 12.8425 88.5500 TC 12.8253 88.5208 1 3 291
1973280N12090 1973 110 NI BB NOT_NAMED 1973-10-08 00:00:00 TS 12.9000 88.4000 main 714 714 O________OO___ jtwc_io IO101973 12.9000 88.4000 -1 12.9000 88.4000 TC 12.9000 88.4000 1 3 302
1973280N12090 1973 110 NI BB NOT_NAMED 1973-10-08 03:00:00 TS 12.9880 88.2916 main 718 718 P________PP___ IO101973 12.9775 88.3000 -1 12.9775 88.3000 TC 13.0090 88.2750 1 3 316
1973280N12090 1973 110 NI BB NOT_NAMED 1973-10-08 06:00:00 TS 13.1158 88.1833 main 722 704 O________OP___ jtwc_io IO101973 13.1000 88.2000 XX 30 -5 13.1000 88.2000 TC 30 13.1475 88.1500 1 4 322
1973280N12090 1973 110 NI BB NOT_NAMED 1973-10-08 09:00:00 TS 13.2891 88.0467 main 698 673 P________PP___ IO101973 13.2775 88.0575 XX 32 -5 13.2775 88.0575 TC 32 13.3122 88.0249 1 5 324
1973280N12090 1973 110 NI BB NOT_NAMED 1973-10-08 12:00:00 TS 13.5000 87.9000 main 673 649 O________OO___ jtwc_io IO101973 13.5000 87.9000 XX 35 -5 13.5000 87.9000 TC 35 13.5000 87.9000 1 5 327
1973280N12090 1973 110 NI BB NOT_NAMED 1973-10-08 15:00:00 TS 13.7386 87.7480 main 642 609 P________PP___ IO101973 13.7500 87.7425 XX 35 -5 13.7500 87.7425 TC 35 13.7156 87.7589 1 6 330
1973280N12090 1973 110 NI BB NOT_NAMED 1973-10-08 18:00:00 TS 13.9833 87.6067 main 609 585 O________OP___ jtwc_io IO101973 14.0000 87.6000 XX 35 -5 14.0000 87.6000 TC 35 13.9500 87.6202 1 5 332
1973280N12090 1973 110 NI BB NOT_NAMED 1973-10-08 21:00:00 TS 14.2048 87.4888 main 585 560 P________PP___ IO101973 14.2150 87.4850 XX 35 -5 14.2150 87.4850 TC 35 14.1844 87.4964 1 5 334
1973280N12090 1973 110 NI BB NOT_NAMED 1973-10-09 00:00:00 TS 14.4000 87.4000 main 560 536 O________OO___ jtwc_io IO101973 14.4000 87.4000 XX 35 -5 14.4000 87.4000 TC 35 14.4000 87.4000 2 4 338
1973280N12090 1973 110 NI BB NOT_NAMED 1973-10-09 03:00:00 TS 14.5595 87.3387 main 536 527 P________PP___ IO101973 14.5575 87.3350 XX 37 -5 14.5575 87.3350 TC 37 14.5634 87.3461 2 3 344
1973280N12090 1973 110 NI BB NOT_NAMED 1973-10-09 06:00:00 TS 14.7025 87.3066 main 527 519 O________OP___ jtwc_io IO101973 14.7000 87.3000 XX 40 -5 14.7000 87.3000 TC 40 14.7074 87.3198 2 3 351
1973280N12090 1973 110 NI BB NOT_NAMED 1973-10-09 09:00:00 TS 14.8493 87.3029 main 519 502 P________PP___ IO101973 14.8500 87.3000 XX 40 -5 14.8500 87.3000 TC 40 14.8478 87.3086 2 3 355
1973280N12090 1973 110 NI BB NOT_NAMED 1973-10-09 12:00:00 TS 15.0000 87.3000 main 502 494 O________OO___ jtwc_io IO101973 15.0000 87.3000 XX 40 -5 15.0000 87.3000 TC 40 15.0000 87.3000 2 3 352
1973280N12090 1973 110 NI BB NOT_NAMED 1973-10-09 15:00:00 TS 15.1451 87.2570 main 494 470 P________PP___ IO101973 15.1350 87.2500 XX 40 -5 15.1350 87.2500 TC 40 15.1653 87.2710 2 3 345
1973280N12090 1973 110 NI BB NOT_NAMED 1973-10-09 18:00:00 TS 15.3158 87.2142 main 470 454 O________OP___ jtwc_io IO101973 15.3000 87.2000 XX 40 -5 15.3000 87.2000 TC 40 15.3475 87.2425 2 4 352
1973280N12090 1973 110 NI BB NOT_NAMED 1973-10-09 21:00:00 TS 15.5370 87.2009 main 454 431 P________PP___ IO101973 15.5275 87.1925 XX 40 -5 15.5275 87.1925 TC 40 15.5559 87.2178 2 5 358
1973280N12090 1973 110 NI BB NOT_NAMED 1973-10-10 00:00:00 TS 15.8000 87.2000 main 431 408 O________OO___ jtwc_io IO101973 15.8000 87.2000 XX 40 -5 15.8000 87.2000 TC 40 15.8000 87.2000 2 6 358
1973280N12090 1973 110 NI BB NOT_NAMED 1973-10-10 03:00:00 TS 16.0877 87.1976 main 408 384 P________PP___ IO101973 16.0850 87.2000 XX 40 -5 16.0850 87.2000 TC 40 16.0931 87.1928 2 6 0
1973280N12090 1973 110 NI BB NOT_NAMED 1973-10-10 06:00:00 TS 16.4067 87.1975 main 384 361 O________OP___ jtwc_io IO101973 16.4000 87.2000 XX 40 -5 16.4000 87.2000 TC 40 16.4200 87.1924 2 7 2
1973280N12090 1973 110 NI BB NOT_NAMED 1973-10-10 09:00:00 TS 16.7540 87.1986 main 354 334 P________PP___ IO101973 16.7500 87.2000 XX 40 -5 16.7500 87.2000 TC 40 16.7619 87.1959 2 7 0
1973280N12090 1973 110 NI BB NOT_NAMED 1973-10-10 12:00:00 TS 17.1000 87.2000 main 334 302 O________OO___ jtwc_io IO101973 17.1000 87.2000 XX 40 -5 17.1000 87.2000 TC 40 17.1000 87.2000 2 6 0
1973280N12090 1973 110 NI BB NOT_NAMED 1973-10-10 15:00:00 TS 17.3925 87.2013 main 302 270 P________PP___ IO101973 17.4075 87.2000 XX 37 -5 17.4075 87.2000 TC 37 17.3625 87.2040 2 6 0
1973280N12090 1973 110 NI BB NOT_NAMED 1973-10-10 18:00:00 TS 17.6750 87.2025 main 270 249 O________OP___ jtwc_io IO101973 17.7000 87.2000 XX 35 -5 17.7000 87.2000 TC 35 17.6251 87.2074 2 6 3
1973280N12090 1973 110 NI BB NOT_NAMED 1973-10-10 21:00:00 TS 17.9500 87.2024 main 239 207 P________PP___ IO101973 17.9625 87.2000 XX 35 -5 17.9625 87.2000 TC 35 17.9250 87.2071 2 6 358
1973280N12090 1973 110 NI BB NOT_NAMED 1973-10-11 00:00:00 TS 18.3000 87.2000 main 207 158 O________OO___ jtwc_io IO101973 18.3000 87.2000 XX 35 -5 18.3000 87.2000 TC 35 18.3000 87.2000 2 9 2
1973280N12090 1973 110 NI BB NOT_NAMED 1973-10-11 03:00:00 TS 18.8047 87.2122 main 158 107 P________PP___ IO101973 18.8050 87.2074 XX 32 -5 18.8050 87.2074 TC 32 18.8040 87.2219 2 11 1
1973280N12090 1973 110 NI BB NOT_NAMED 1973-10-11 06:00:00 TS 19.3941 87.2103 main 107 62 O________OP___ jtwc_io IO101973 19.4000 87.2000 XX 30 -5 19.4000 87.2000 TC 30 19.3823 87.2310 2 12 359
1973280N12090 1973 110 NI BB NOT_NAMED 1973-10-11 09:00:00 TS 20.0031 87.1914 main 62 15 P________PP___ IO101973 20.0074 87.1872 XX 30 -5 20.0074 87.1872 TC 30 19.9945 87.1997 2 12 355
1973280N12090 1973 110 NI BB NOT_NAMED 1973-10-11 12:00:00 TS 20.6000 87.1000 main 15 0 O________OO___ jtwc_io IO101973 20.6000 87.1000 XX 30 -5 20.6000 87.1000 TC 30 20.6000 87.1000 2 11 346
1973280N12090 1973 110 NI BB NOT_NAMED 1973-10-11 15:00:00 TS 21.1101 86.8880 main 10 0 P________PP___ IO101973 21.1075 86.8875 XX -5 21.1075 86.8875 TC 21.1153 86.8892 2 11 335
1973280N12090 1973 110 NI BB NOT_NAMED 1973-10-11 18:00:00 TS 21.6068 86.6035 main 0 0 O________OP___ jtwc_io IO101973 21.6000 86.6000 -1 21.6000 86.6000 TC 21.6205 86.6105 2 12 332
1973280N12090 1973 110 NI BB NOT_NAMED 1973-10-11 21:00:00 TS 22.1318 86.3004 main 0 0 P________PP___ IO101973 22.1275 86.2999 -1 22.1275 86.2999 TC 22.1404 86.3014 2 12 333
1973280N12090 1973 110 NI BB NOT_NAMED 1973-10-12 00:00:00 TS 22.7000 86.0000 main 0 0 O________OO___ jtwc_io IO101973 22.7000 86.0000 -1 22.7000 86.0000 TC 22.7000 86.0000 1 13 336
1973280N12090 1973 110 NI BB NOT_NAMED 1973-10-12 03:00:00 TS 23.3243 85.7353 main 0 0 P________PP___ IO101973 23.3275 85.7348 -1 23.3275 85.7348 TC 23.3179 85.7361 1 14 341
1973280N12090 1973 110 NI BB NOT_NAMED 1973-10-12 06:00:00 TS 23.9949 85.5020 main 0 0 O________OP___ jtwc_io IO101973 24.0000 85.5000 -1 24.0000 85.5000 TC 23.9848 85.5061 1 14 344
1973280N12090 1973 110 NI BB NOT_NAMED 1973-10-12 09:00:00 TS 24.6915 85.2946 main 0 0 P________PP___ IO101973 24.6950 85.2929 -1 24.6950 85.2929 TC 24.6843 85.2981 1 15 345
1973280N12090 1973 110 NI BB NOT_NAMED 1973-10-12 12:00:00 TS 25.4000 85.1000 main 0 O________OO___ jtwc_io IO101973 25.4000 85.1000 -1 25.4000 85.1000 TC 25.4000 85.1000 6 15 346

IBTrACS Databaseについて

本データベースは、米国NOAAが公開する1842年以降の世界の熱帯低気圧のベストトラックデータアーカイブInternational Best Track Archive for Climate Stewardship (IBTrACS)を、ウェブで閲覧しやすい形式に変換したものです。

最終更新日:2021-12-08